Time;durP1;ratioP1;P1;durP2;ratioP2;P2;SDS_P1;SDS_P2;PMS_P1;PMS_P2;Temp;Humidity;BMP_temperature;BMP_pressure;BME280_temperature;BME280_humidity;BME280_pressure;Samples;Min_cycle;Max_cycle;Signal;HPM_P1;HPM_P2
2023/03/31 00:01:57;;;;;;;5.53;1.73;;;16.90;94.70;;;;;;5034014;28;20036;-72
2023/03/31 00:04:24;;;;;;;8.75;2.00;;;16.90;94.70;;;;;;5033749;28;20038;-72
2023/03/31 00:06:52;;;;;;;7.97;1.65;;;16.90;94.70;;;;;;5033795;28;20458;-72
2023/03/31 00:09:20;;;;;;;4.85;1.55;;;16.90;94.70;;;;;;5033802;28;20032;-72
2023/03/31 00:11:47;;;;;;;3.75;1.63;;;16.90;94.70;;;;;;5033821;28;20025;-74
2023/03/31 00:14:14;;;;;;;8.65;2.03;;;16.90;94.60;;;;;;5033686;28;20026;-72
2023/03/31 00:16:39;;;;;;;9.13;2.42;;;16.90;94.70;;;;;;5033557;28;20034;-73
2023/03/31 00:19:09;;;;;;;5.18;1.40;;;16.90;94.70;;;;;;5034579;28;20036;-73
2023/03/31 00:21:35;;;;;;;7.15;1.70;;;16.90;94.70;;;;;;5033390;28;20044;-73
2023/03/31 00:24:02;;;;;;;8.57;1.60;;;16.90;94.70;;;;;;5033673;28;20057;-73
2023/03/31 00:26:29;;;;;;;4.88;1.65;;;16.90;94.70;;;;;;5033453;28;20044;-73
2023/03/31 00:28:55;;;;;;;9.13;2.00;;;16.80;94.80;;;;;;5033286;28;20421;-79
2023/03/31 00:31:21;;;;;;;10.45;2.13;;;16.70;94.80;;;;;;5033290;28;20021;-73
2023/03/31 00:33:48;;;;;;;8.50;2.45;;;16.80;94.90;;;;;;5032897;28;20041;-72
2023/03/31 00:36:20;;;;;;;10.43;2.85;;;16.70;94.90;;;;;;5033009;28;20022;-76
2023/03/31 00:38:46;;;;;;;10.43;1.98;;;16.70;95.00;;;;;;5033478;28;20475;-78
2023/03/31 00:41:12;;;;;;;8.20;2.10;;;16.70;95.00;;;;;;5033220;28;20479;-74
2023/03/31 00:43:38;;;;;;;5.55;1.63;;;16.70;95.00;;;;;;5033279;28;20040;-72
2023/03/31 00:46:28;;;;;;;9.65;2.47;;;16.80;95.00;;;;;;5033011;28;20401;-78
2023/03/31 00:48:56;;;;;;;4.50;1.48;;;16.80;94.90;;;;;;5033206;28;20461;-77
2023/03/31 00:51:24;;;;;;;5.75;1.83;;;16.80;94.90;;;;;;5032910;28;20080;-77
2023/03/31 00:53:56;;;;;;;6.00;1.70;;;16.80;94.90;;;;;;5033260;28;20017;-77
2023/03/31 00:56:23;;;;;;;5.57;1.65;;;16.80;94.90;;;;;;5032687;28;20033;-75
2023/03/31 00:58:49;;;;;;;8.60;2.60;;;16.80;94.90;;;;;;5033233;28;20025;-74
2023/03/31 01:01:23;;;;;;;7.57;1.60;;;16.80;95.00;;;;;;5032927;28;20482;-73
2023/03/31 01:03:49;;;;;;;10.00;2.28;;;16.70;95.00;;;;;;5032936;28;20075;-72
2023/03/31 01:06:18;;;;;;;7.38;1.80;;;16.70;95.00;;;;;;5032513;28;20025;-79
2023/03/31 01:08:46;;;;;;;9.15;2.30;;;16.70;95.00;;;;;;5032808;28;20116;-77
2023/03/31 01:11:15;;;;;;;6.25;2.05;;;16.70;95.00;;;;;;5032525;28;20018;-75
2023/03/31 01:13:42;;;;;;;7.13;1.83;;;16.60;95.00;;;;;;5032884;28;20022;-77
2023/03/31 01:16:08;;;;;;;11.43;2.40;;;16.70;95.10;;;;;;5032398;28;20045;-74
2023/03/31 01:18:34;;;;;;;6.45;1.90;;;16.60;95.30;;;;;;5032845;28;20025;-76
2023/03/31 01:21:09;;;;;;;8.90;2.25;;;16.60;95.20;;;;;;5032544;28;20352;-77
2023/03/31 01:24:34;;;;;;;9.18;2.00;;;16.60;95.20;;;;;;5032682;28;20038;-78
2023/03/31 01:27:12;;;;;;;7.82;2.05;;;16.60;95.20;;;;;;4971182;28;20038;-73
2023/03/31 01:30:03;;;;;;;7.97;2.17;;;16.50;95.30;;;;;;4971703;28;20031;-77
2023/03/31 01:32:50;;;;;;;8.75;2.25;;;16.50;95.30;;;;;;5016373;28;20034;-73
2023/03/31 01:35:30;;;;;;;6.88;2.08;;;16.50;95.30;;;;;;5032623;28;20442;-78
2023/03/31 01:38:08;;;;;;;9.52;2.22;;;16.40;95.60;;;;;;5032358;28;20025;-78
2023/03/31 01:40:38;;;;;;;10.82;2.97;;;16.40;95.70;;;;;;5032138;28;20053;-73
2023/03/31 01:43:09;;;;;;;11.23;2.25;;;16.30;95.70;;;;;;5032468;28;20386;-76
2023/03/31 01:45:53;;;;;;;11.30;2.38;;;16.30;95.90;;;;;;5034115;28;20026;-78
2023/03/31 01:48:25;;;;;;;9.45;2.13;;;16.20;95.90;;;;;;5036414;28;20040;-78
2023/03/31 01:50:57;;;;;;;5.22;2.00;;;16.30;96.00;;;;;;5036513;28;20024;-73
2023/03/31 01:53:51;;;;;;;9.30;1.65;;;16.30;95.90;;;;;;5036563;28;20027;-73
2023/03/31 01:56:38;;;;;;;10.10;2.40;;;16.40;95.80;;;;;;5036007;28;20025;-73
2023/03/31 01:59:13;;;;;;;10.85;2.13;;;16.20;96.10;;;;;;5036517;28;20022;-74
2023/03/31 02:01:54;;;;;;;9.63;1.73;;;16.10;96.40;;;;;;5036167;28;20036;-73
2023/03/31 02:04:31;;;;;;;9.32;2.53;;;16.10;96.30;;;;;;5036305;28;20441;-73
2023/03/31 02:07:06;;;;;;;9.02;2.15;;;16.10;96.60;;;;;;5035755;28;20029;-74
2023/03/31 02:09:37;;;;;;;10.68;2.10;;;16.10;96.80;;;;;;5034200;28;20073;-74
2023/03/31 02:12:06;;;;;;;8.75;2.00;;;16.00;96.90;;;;;;5033010;28;20091;-76
2023/03/31 02:14:35;;;;;;;8.57;1.75;;;16.00;96.90;;;;;;5035518;28;20024;-78
2023/03/31 02:17:02;;;;;;;11.63;2.25;;;16.00;97.00;;;;;;5033005;28;20042;-74
2023/03/31 02:19:32;;;;;;;8.93;1.98;;;15.90;97.10;;;;;;5035169;28;20018;-73
2023/03/31 02:21:58;;;;;;;7.90;1.77;;;15.90;97.10;;;;;;5035744;28;20025;-77
2023/03/31 02:24:26;;;;;;;6.15;1.50;;;16.00;97.10;;;;;;5035557;28;20025;-73
2023/03/31 02:27:19;;;;;;;8.23;1.70;;;15.90;97.10;;;;;;5035539;28;20030;-73
2023/03/31 02:29:45;;;;;;;9.68;1.85;;;15.90;97.30;;;;;;5035804;28;20493;-72
2023/03/31 02:32:24;;;;;;;7.72;1.60;;;15.90;97.20;;;;;;5035649;28;20100;-75
2023/03/31 02:34:49;;;;;;;6.03;1.70;;;16.00;96.80;;;;;;5036317;28;20049;-73
2023/03/31 02:37:15;;;;;;;8.60;2.08;;;16.00;96.60;;;;;;5035458;28;20056;-72
2023/03/31 02:39:44;;;;;;;8.05;1.95;;;16.00;96.50;;;;;;5035394;28;20029;-73
2023/03/31 02:42:10;;;;;;;6.75;1.88;;;16.00;96.50;;;;;;5035477;28;20029;-76
2023/03/31 02:44:37;;;;;;;6.00;1.52;;;16.10;96.20;;;;;;5035679;28;20027;-73
2023/03/31 02:47:15;;;;;;;5.57;1.58;;;16.20;96.10;;;;;;5017419;28;20392;-76
2023/03/31 02:49:45;;;;;;;6.32;1.92;;;16.20;96.00;;;;;;5035634;28;20107;-73
2023/03/31 02:52:29;;;;;;;5.63;1.85;;;16.30;96.00;;;;;;5035079;28;20124;-74
2023/03/31 02:55:21;;;;;;;8.80;1.88;;;16.20;95.90;;;;;;5035164;28;20053;-73
2023/03/31 02:58:14;;;;;;;4.75;1.55;;;16.30;95.90;;;;;;5034601;28;20017;-75
2023/03/31 03:01:17;;;;;;;5.22;1.73;;;16.30;95.90;;;;;;5035138;28;20029;-75
2023/03/31 03:04:08;;;;;;;5.13;1.67;;;16.30;95.80;;;;;;5035043;28;20021;-74
2023/03/31 03:07:02;;;;;;;8.70;1.85;;;16.30;95.90;;;;;;5017616;28;20029;-73
2023/03/31 03:10:05;;;;;;;4.82;1.75;;;16.30;95.80;;;;;;5034884;28;20103;-73
2023/03/31 03:12:54;;;;;;;6.82;1.80;;;16.30;95.80;;;;;;5034895;28;20471;-73
2023/03/31 03:15:25;;;;;;;5.68;1.95;;;16.30;95.80;;;;;;5035158;28;20106;-74
2023/03/31 03:17:52;;;;;;;6.75;1.90;;;16.30;95.90;;;;;;5032922;28;20029;-77
2023/03/31 03:20:20;;;;;;;6.53;1.80;;;16.20;95.90;;;;;;5034518;28;20034;-73
2023/03/31 03:22:45;;;;;;;4.85;1.30;;;16.20;95.90;;;;;;5033581;28;20017;-77
2023/03/31 03:25:13;;;;;;;6.35;1.38;;;16.20;95.90;;;;;;5033128;28;20501;-78
2023/03/31 03:27:39;;;;;;;4.07;1.80;;;16.20;96.00;;;;;;5034878;28;20037;-77
2023/03/31 03:30:08;;;;;;;4.72;1.60;;;16.10;96.00;;;;;;5034529;28;20067;-76
2023/03/31 03:32:34;;;;;;;5.10;1.50;;;16.20;96.00;;;;;;5034688;28;20364;-77
2023/03/31 03:35:01;;;;;;;6.63;2.00;;;16.10;95.90;;;;;;5033572;28;20489;-74
2023/03/31 03:37:28;;;;;;;7.80;2.38;;;16.10;96.00;;;;;;5034098;28;20033;-78
2023/03/31 03:39:54;;;;;;;5.05;2.03;;;16.00;96.10;;;;;;5034349;28;20021;-77
2023/03/31 03:42:19;;;;;;;5.50;1.77;;;16.00;96.20;;;;;;5034516;28;20355;-77
2023/03/31 03:44:45;;;;;;;5.65;2.13;;;16.00;96.10;;;;;;5034440;28;20056;-72
2023/03/31 03:47:11;;;;;;;7.00;1.83;;;16.00;96.10;;;;;;5034170;28;20049;-76
2023/03/31 03:49:36;;;;;;;5.10;1.77;;;16.00;96.00;;;;;;5034184;28;20032;-74
2023/03/31 03:52:02;;;;;;;3.88;1.63;;;15.90;96.10;;;;;;5033877;28;20120;-73
2023/03/31 03:54:28;;;;;;;5.05;1.75;;;15.90;96.10;;;;;;5034046;28;20029;-72
2023/03/31 03:56:53;;;;;;;5.05;1.73;;;15.90;96.10;;;;;;5034291;28;20028;-72
2023/03/31 03:59:19;;;;;;;4.88;1.70;;;15.90;96.20;;;;;;5034031;28;20467;-74
2023/03/31 04:01:45;;;;;;;7.63;1.88;;;15.90;96.10;;;;;;5033998;28;20029;-76
2023/03/31 04:04:10;;;;;;;5.35;1.75;;;16.00;96.10;;;;;;5033918;28;20021;-74
2023/03/31 04:06:36;;;;;;;3.35;1.38;;;15.90;96.10;;;;;;5033877;28;20036;-73
2023/03/31 04:09:02;;;;;;;6.85;1.73;;;15.90;96.10;;;;;;5032770;28;20024;-73
2023/03/31 04:11:28;;;;;;;3.90;1.30;;;15.70;96.10;;;;;;5033860;28;20018;-75
2023/03/31 04:13:54;;;;;;;5.10;1.55;;;15.60;95.90;;;;;;5033805;28;20048;-73
2023/03/31 04:16:21;;;;;;;4.28;1.20;;;15.60;95.60;;;;;;5033549;28;20040;-74
2023/03/31 04:18:47;;;;;;;3.70;1.13;;;15.60;95.50;;;;;;5033673;28;20032;-73
2023/03/31 04:21:21;;;;;;;5.05;1.60;;;15.60;95.60;;;;;;5031005;28;20333;-74
2023/03/31 04:23:48;;;;;;;4.95;1.30;;;15.60;95.40;;;;;;5026954;28;20418;-74
2023/03/31 04:26:16;;;;;;;2.30;1.05;;;15.60;95.60;;;;;;5027843;28;20033;-74
2023/03/31 04:28:45;;;;;;;3.50;1.00;;;15.60;95.30;;;;;;5025538;28;20026;-73
2023/03/31 04:31:24;;;;;;;2.33;0.82;;;15.50;95.40;;;;;;5024562;28;20018;-73
2023/03/31 04:33:51;;;;;;;1.95;0.65;;;15.50;95.50;;;;;;5020505;28;20055;-74
2023/03/31 04:36:17;;;;;;;2.55;0.60;;;15.40;95.80;;;;;;5027884;28;20096;-75
2023/03/31 04:38:45;;;;;;;2.70;0.73;;;15.30;96.00;;;;;;5026042;28;20029;-72
2023/03/31 04:41:13;;;;;;;3.50;1.10;;;15.30;96.10;;;;;;5029054;28;20035;-73
2023/03/31 04:43:38;;;;;;;2.70;0.60;;;15.30;96.10;;;;;;5027621;28;20022;-74
2023/03/31 04:46:04;;;;;;;2.67;0.57;;;15.30;96.00;;;;;;5032749;28;20075;-73
2023/03/31 04:48:29;;;;;;;2.45;0.82;;;15.20;96.40;;;;;;5026694;28;20483;-72
2023/03/31 04:50:55;;;;;;;2.22;0.63;;;15.20;96.60;;;;;;5028439;28;20028;-73
2023/03/31 04:53:21;;;;;;;2.75;0.50;;;15.20;96.90;;;;;;5030956;28;20395;-72
2023/03/31 04:55:50;;;;;;;1.67;0.35;;;15.20;97.00;;;;;;5028871;28;20580;-71
2023/03/31 04:58:16;;;;;;;2.40;0.68;;;15.20;97.10;;;;;;5029071;28;20355;-72
2023/03/31 05:00:42;;;;;;;4.22;0.98;;;15.20;97.30;;;;;;5030004;28;20485;-73
2023/03/31 05:03:08;;;;;;;2.47;0.55;;;15.20;97.40;;;;;;5030934;28;20029;-75
2023/03/31 05:05:34;;;;;;;2.53;0.70;;;15.20;97.50;;;;;;5031020;28;20021;-72
2023/03/31 05:08:00;;;;;;;2.83;1.00;;;15.20;97.20;;;;;;5013538;28;20025;-72
2023/03/31 05:10:25;;;;;;;2.47;0.73;;;15.20;96.60;;;;;;5031191;28;20029;-75
2023/03/31 05:12:51;;;;;;;2.78;1.15;;;15.30;96.60;;;;;;5032988;28;20136;-75
2023/03/31 05:15:17;;;;;;;2.83;0.85;;;15.20;96.50;;;;;;5031154;28;20154;-74
2023/03/31 05:17:43;;;;;;;2.53;0.85;;;15.30;96.30;;;;;;5030567;28;20069;-72
2023/03/31 05:20:10;;;;;;;3.15;0.90;;;15.30;96.50;;;;;;5022372;28;20025;-72
2023/03/31 05:22:37;;;;;;;4.00;1.00;;;15.40;96.40;;;;;;5005466;28;20021;-71
2023/03/31 05:25:05;;;;;;;3.10;1.00;;;15.40;96.40;;;;;;5019023;28;20025;-72
2023/03/31 05:27:31;;;;;;;3.92;1.20;;;15.50;96.30;;;;;;5024381;28;20037;-71
2023/03/31 05:29:57;;;;;;;10.60;1.20;;;15.80;96.30;;;;;;5021921;28;20136;-71
2023/03/31 05:32:24;;;;;;;4.57;1.00;;;15.80;96.30;;;;;;5010416;28;20025;-73
2023/03/31 05:34:51;;;;;;;3.42;0.95;;;15.80;96.50;;;;;;5030587;28;20017;-71
2023/03/31 05:37:19;;;;;;;3.22;1.30;;;15.80;96.50;;;;;;5029909;28;20037;-70
2023/03/31 05:39:44;;;;;;;8.18;1.38;;;15.90;96.60;;;;;;5032670;28;20098;-75
2023/03/31 05:42:10;;;;;;;6.65;1.13;;;15.80;96.60;;;;;;5031293;28;20493;-73
2023/03/31 05:44:36;;;;;;;5.22;1.20;;;15.90;96.60;;;;;;5030917;28;20018;-71
2023/03/31 05:47:02;;;;;;;7.97;1.27;;;15.90;96.60;;;;;;5036590;28;20042;-71
2023/03/31 05:49:27;;;;;;;5.18;1.27;;;15.90;96.60;;;;;;5030934;28;20471;-71
2023/03/31 05:51:53;;;;;;;3.67;1.10;;;16.00;96.80;;;;;;5028668;28;20034;-71
2023/03/31 05:54:19;;;;;;;4.35;1.20;;;15.90;96.70;;;;;;5035128;28;20030;-71
2023/03/31 05:56:44;;;;;;;6.53;1.40;;;16.00;96.90;;;;;;5028196;28;20057;-71
2023/03/31 05:59:10;;;;;;;9.75;1.45;;;15.90;96.80;;;;;;5027241;28;20029;-79
2023/03/31 06:01:36;;;;;;;7.65;1.88;;;15.80;96.90;;;;;;5038535;28;20425;-71
2023/03/31 06:04:01;;;;;;;8.45;1.27;;;15.80;97.00;;;;;;5031944;28;20052;-79
2023/03/31 06:06:27;;;;;;;8.82;1.65;;;15.80;97.00;;;;;;5037661;28;20141;-70
2023/03/31 06:08:52;;;;;;;11.52;2.28;;;15.80;97.20;;;;;;5041067;28;20036;-70
2023/03/31 06:11:21;;;;;;;8.05;1.52;;;15.70;97.20;;;;;;5029265;28;20443;-70
2023/03/31 06:13:47;;;;;;;16.80;2.30;;;15.70;97.30;;;;;;5030253;28;20449;-72
2023/03/31 06:16:15;;;;;;;13.75;2.22;;;15.70;97.40;;;;;;5026727;28;20033;-72
2023/03/31 06:18:41;;;;;;;10.52;2.47;;;15.70;97.50;;;;;;5030684;28;20018;-71
2023/03/31 06:21:10;;;;;;;8.35;2.70;;;15.60;97.50;;;;;;5044767;28;20079;-73
2023/03/31 06:23:35;;;;;;;8.40;2.20;;;15.60;97.60;;;;;;5049961;28;20427;-72
2023/03/31 06:26:05;;;;;;;11.88;2.35;;;15.60;97.60;;;;;;5049614;28;20127;-75
2023/03/31 06:28:32;;;;;;;9.35;3.17;;;15.50;97.70;;;;;;5051208;28;20115;-74
2023/03/31 06:31:00;;;;;;;12.35;3.00;;;15.50;97.80;;;;;;5050427;28;20032;-73
2023/03/31 06:33:25;;;;;;;11.35;3.00;;;15.50;97.90;;;;;;5054539;28;20044;-72
2023/03/31 06:35:53;;;;;;;10.23;3.10;;;15.50;98.00;;;;;;5055165;28;20478;-72
2023/03/31 06:38:19;;;;;;;10.60;2.55;;;15.50;98.00;;;;;;5055466;28;20017;-72
2023/03/31 06:40:45;;;;;;;12.52;2.63;;;15.40;98.00;;;;;;5055437;28;20028;-77
2023/03/31 06:43:10;;;;;;;12.32;3.03;;;15.50;98.10;;;;;;5055352;28;20024;-75
2023/03/31 06:45:36;;;;;;;12.55;4.20;;;15.50;98.10;;;;;;5037408;28;20029;-72
2023/03/31 06:48:02;;;;;;;13.88;4.82;;;15.50;98.10;;;;;;5055033;28;20504;-73
2023/03/31 06:50:28;;;;;;;12.88;3.65;;;15.50;98.10;;;;;;5055196;28;20025;-72
2023/03/31 06:52:54;;;;;;;10.15;2.78;;;15.50;98.10;;;;;;5055280;28;20027;-73
2023/03/31 06:55:19;;;;;;;8.80;2.65;;;15.40;98.20;;;;;;5055116;28;20020;-78
2023/03/31 06:57:45;;;;;;;13.63;3.22;;;15.50;98.50;;;;;;5054980;28;20112;-72
2023/03/31 07:00:11;;;;;;;12.30;4.00;;;15.50;98.20;;;;;;5055025;28;20048;-75
2023/03/31 07:02:37;;;;;;;14.70;3.63;;;15.40;98.20;;;;;;5054921;28;20021;-73
2023/03/31 07:05:03;;;;;;;10.98;3.30;;;15.40;98.30;;;;;;5055011;28;20104;-75
2023/03/31 07:07:31;;;;;;;8.10;2.85;;;15.40;98.30;;;;;;5054916;28;20390;-77
2023/03/31 07:09:57;;;;;;;10.90;3.38;;;15.40;98.30;;;;;;5055032;28;20047;-73
2023/03/31 07:12:23;;;;;;;15.80;3.35;;;15.40;98.40;;;;;;5054852;28;20087;-73
2023/03/31 07:14:49;;;;;;;13.65;3.80;;;15.40;98.40;;;;;;5054486;28;20017;-78
2023/03/31 07:17:15;;;;;;;10.20;2.88;;;15.30;98.40;;;;;;5036778;28;20139;-76
2023/03/31 07:19:41;;;;;;;10.57;2.78;;;15.30;98.40;;;;;;5054562;28;20052;-76
2023/03/31 07:22:07;;;;;;;9.30;2.58;;;15.40;98.40;;;;;;5054935;28;20059;-73
2023/03/31 07:24:33;;;;;;;13.68;3.45;;;15.40;98.30;;;;;;5054707;28;20028;-73
2023/03/31 07:26:58;;;;;;;11.10;3.15;;;15.40;98.30;;;;;;5054426;28;20037;-72
2023/03/31 07:29:24;;;;;;;10.57;3.00;;;15.40;98.30;;;;;;5054344;28;20032;-73
2023/03/31 07:31:51;;;;;;;12.95;3.20;;;15.40;98.20;;;;;;5054678;28;20540;-73
2023/03/31 07:34:17;;;;;;;14.45;3.45;;;15.40;98.30;;;;;;5054094;28;20033;-72
2023/03/31 07:36:42;;;;;;;13.23;2.95;;;15.40;98.30;;;;;;5054335;28;20025;-73
2023/03/31 07:39:08;;;;;;;13.13;3.13;;;15.40;98.30;;;;;;5054374;28;20017;-75
2023/03/31 07:41:34;;;;;;;11.80;3.28;;;15.40;98.30;;;;;;5054657;28;20033;-72
2023/03/31 07:43:59;;;;;;;10.98;2.90;;;15.40;98.30;;;;;;5053746;28;20107;-72
2023/03/31 07:46:27;;;;;;;9.57;2.63;;;15.40;98.30;;;;;;5054197;28;20041;-76
2023/03/31 07:48:54;;;;;;;12.43;3.47;;;15.40;98.30;;;;;;5054145;28;20542;-74
2023/03/31 07:51:23;;;;;;;13.00;3.05;;;15.40;98.40;;;;;;5054207;28;20079;-78
2023/03/31 07:53:51;;;;;;;11.60;3.17;;;15.40;98.40;;;;;;5036143;28;20021;-72
2023/03/31 07:56:17;;;;;;;13.38;2.97;;;15.40;98.30;;;;;;5054108;28;20029;-74
2023/03/31 07:58:43;;;;;;;13.52;3.25;;;15.40;98.40;;;;;;5053690;28;20181;-72
2023/03/31 08:01:11;;;;;;;12.32;3.13;;;15.40;98.40;;;;;;5053941;28;20029;-76
2023/03/31 08:03:36;;;;;;;14.02;4.15;;;15.40;98.40;;;;;;5054048;28;20100;-72
2023/03/31 08:06:02;;;;;;;10.60;3.08;;;15.40;98.70;;;;;;5053912;28;20048;-74
2023/03/31 08:08:27;;;;;;;12.18;3.38;;;15.40;98.50;;;;;;5053911;28;20037;-71
2023/03/31 08:10:53;;;;;;;16.00;4.80;;;15.50;98.40;;;;;;5053804;28;20034;-75
2023/03/31 08:13:19;;;;;;;13.13;3.58;;;15.40;98.80;;;;;;5053523;28;20020;-72
2023/03/31 08:15:44;;;;;;;18.10;4.10;;;15.40;98.50;;;;;;5053239;28;20375;-72
2023/03/31 08:18:10;;;;;;;19.25;4.40;;;15.40;98.50;;;;;;5035767;28;20029;-77
2023/03/31 08:20:38;;;;;;;12.25;3.53;;;15.40;98.50;;;;;;5053274;28;20025;-72
2023/03/31 08:23:07;;;;;;;13.73;3.80;;;15.40;98.40;;;;;;5053738;28;20025;-71
2023/03/31 08:25:33;;;;;;;13.80;3.70;;;15.40;98.40;;;;;;5053299;28;20025;-71
2023/03/31 08:27:59;;;;;;;11.23;3.65;;;15.40;98.40;;;;;;5053055;28;20389;-77
2023/03/31 08:30:24;;;;;;;16.00;4.47;;;15.40;98.60;;;;;;5053141;28;20021;-78
2023/03/31 08:32:50;;;;;;;13.02;3.47;;;15.40;98.30;;;;;;5053515;28;20078;-76
2023/03/31 08:35:16;;;;;;;18.05;4.45;;;15.40;98.20;;;;;;5053060;28;20355;-72
2023/03/31 08:37:41;;;;;;;18.90;4.35;;;15.50;98.20;;;;;;5053702;28;20100;-71
2023/03/31 08:40:20;;;;;;;11.95;3.33;;;15.40;98.20;;;;;;5053144;28;20416;-74
2023/03/31 08:42:51;;;;;;;13.63;3.35;;;15.50;98.00;;;;;;5053117;28;20056;-71
2023/03/31 08:45:40;;;;;;;13.35;3.28;;;15.50;97.90;;;;;;5052980;28;20481;-71
2023/03/31 08:48:24;;;;;;;17.35;3.83;;;15.50;97.80;;;;;;5052964;28;20044;-72
2023/03/31 08:50:58;;;;;;;13.80;3.30;;;15.50;97.70;;;;;;5053000;28;20025;-71
2023/03/31 08:53:31;;;;;;;13.85;3.15;;;15.50;97.70;;;;;;5053067;28;20021;-71
2023/03/31 08:55:58;;;;;;;11.48;3.40;;;15.50;97.70;;;;;;5052114;28;20367;-73
2023/03/31 08:58:40;;;;;;;17.50;3.95;;;15.50;97.50;;;;;;5053126;28;20066;-72
2023/03/31 09:01:24;;;;;;;;;;;15.60;97.30;;;;;;5052910;28;20056;-72
2023/03/31 09:04:24;;;;;;;13.20;3.78;;;15.50;97.40;;;;;;5051309;28;19943;-75
2023/03/31 09:06:53;;;;;;;15.15;3.40;;;15.50;97.50;;;;;;5034792;28;20048;-72
2023/03/31 09:09:45;;;;;;;16.13;3.83;;;15.50;97.50;;;;;;5052587;28;20029;-73
2023/03/31 09:12:19;;;;;;;11.73;3.08;;;15.60;97.50;;;;;;5052439;28;20401;-72
2023/03/31 09:15:03;;;;;;;16.63;4.68;;;15.50;97.50;;;;;;5052730;28;20028;-73
2023/03/31 09:17:37;;;;;;;12.15;3.08;;;15.60;97.40;;;;;;5052393;28;20021;-73
2023/03/31 09:20:09;;;;;;;11.45;3.42;;;15.60;97.30;;;;;;5052571;28;20083;-73
2023/03/31 09:22:40;;;;;;;17.75;3.90;;;15.50;97.70;;;;;;5052177;28;20437;-73
2023/03/31 09:25:19;;;;;;;15.13;4.07;;;15.50;97.90;;;;;;5052329;28;20059;-72
2023/03/31 09:27:47;;;;;;;17.05;3.78;;;15.50;97.90;;;;;;5052304;28;20381;-72
2023/03/31 09:30:20;;;;;;;10.93;3.17;;;15.50;97.90;;;;;;5052294;28;20041;-73
2023/03/31 09:32:48;;;;;;;13.48;3.28;;;15.50;97.90;;;;;;5052292;28;20036;-73
2023/03/31 09:35:24;;;;;;;11.65;3.67;;;15.50;97.90;;;;;;5052210;28;20082;-73
2023/03/31 09:37:51;;;;;;;13.50;3.50;;;15.50;97.80;;;;;;5052404;28;20021;-73
2023/03/31 09:40:25;;;;;;;14.93;4.10;;;15.50;97.60;;;;;;5034097;28;20025;-73
2023/03/31 09:42:59;;;;;;;16.38;3.85;;;15.50;97.70;;;;;;5034500;28;20017;-78
2023/03/31 09:45:24;;;;;;;14.18;3.05;;;15.50;97.70;;;;;;5052078;28;20021;-72
2023/03/31 09:47:56;;;;;;;13.77;3.63;;;15.50;97.50;;;;;;5052097;28;20120;-72
2023/03/31 09:50:23;;;;;;;14.40;3.78;;;15.50;97.40;;;;;;5052153;28;20022;-72
2023/03/31 09:52:51;;;;;;;12.27;3.22;;;15.50;97.50;;;;;;5051939;28;20059;-72
2023/03/31 09:55:21;;;;;;;9.98;3.72;;;15.50;97.40;;;;;;5051973;28;20017;-72
2023/03/31 09:57:47;;;;;;;12.05;3.70;;;15.50;97.20;;;;;;5052185;28;20029;-72
2023/03/31 10:00:16;;;;;;;13.35;3.38;;;15.60;97.20;;;;;;5052320;28;20401;-72
2023/03/31 10:02:50;;;;;;;14.10;3.88;;;15.60;97.20;;;;;;5052277;28;20052;-73
2023/03/31 10:05:36;;;;;;;18.08;3.63;;;15.60;97.20;;;;;;5052082;28;20017;-72
2023/03/31 10:08:30;;;;;;;11.52;2.58;;;15.60;97.20;;;;;;5036087;28;20036;-72
2023/03/31 10:11:00;;;;;;;14.18;3.42;;;15.60;97.10;;;;;;5056013;28;20036;-73
2023/03/31 10:13:34;;;;;;;11.20;3.50;;;15.60;97.10;;;;;;5056090;28;20017;-74
2023/03/31 10:16:08;;;;;;;12.75;4.28;;;15.60;97.00;;;;;;5055837;28;20039;-74
2023/03/31 10:18:36;;;;;;;12.13;3.38;;;15.60;97.10;;;;;;5055863;28;20031;-78
2023/03/31 10:21:05;;;;;;;14.90;4.10;;;15.60;97.00;;;;;;5056022;28;20043;-72
2023/03/31 10:23:32;;;;;;;13.38;3.83;;;15.50;96.90;;;;;;5055496;28;20470;-73
2023/03/31 10:26:00;;;;;;;14.40;3.97;;;15.50;97.00;;;;;;5055652;28;20439;-72
2023/03/31 10:28:26;;;;;;;13.30;3.58;;;15.60;97.00;;;;;;5055620;28;20029;-72
2023/03/31 10:31:00;;;;;;;15.27;3.42;;;15.60;96.90;;;;;;5055848;28;20025;-72
2023/03/31 10:33:27;;;;;;;20.67;5.22;;;15.60;96.90;;;;;;5055876;28;20369;-72
2023/03/31 10:35:58;;;;;;;14.52;4.13;;;15.60;96.90;;;;;;5055777;28;20031;-73
2023/03/31 10:38:30;;;;;;;14.60;4.22;;;15.60;96.90;;;;;;5055106;28;20496;-72
2023/03/31 10:40:58;;;;;;;19.25;4.50;;;15.60;96.90;;;;;;5055418;28;20064;-73
2023/03/31 10:43:29;;;;;;;15.85;3.47;;;15.60;96.90;;;;;;5055417;28;20029;-72
2023/03/31 10:46:00;;;;;;;13.88;3.58;;;15.60;96.80;;;;;;5055156;28;20039;-72
2023/03/31 10:48:38;;;;;;;19.58;4.45;;;15.60;97.20;;;;;;5055256;28;20371;-71
2023/03/31 10:51:05;;;;;;;17.80;4.13;;;15.60;96.80;;;;;;5055109;28;20025;-71
2023/03/31 10:53:40;;;;;;;16.05;3.42;;;15.60;96.90;;;;;;5055282;28;20432;-72
2023/03/31 10:56:21;;;;;;;16.50;4.05;;;15.60;96.90;;;;;;5054945;28;20029;-72
2023/03/31 10:59:01;;;;;;;15.00;4.32;;;15.60;96.90;;;;;;5055190;28;20056;-71
2023/03/31 11:01:31;;;;;;;14.85;4.45;;;15.60;96.90;;;;;;5037121;28;20029;-71
2023/03/31 11:04:00;;;;;;;17.23;3.75;;;15.60;97.00;;;;;;5055019;28;20079;-78
2023/03/31 11:06:53;;;;;;;12.40;3.60;;;15.50;97.00;;;;;;5054612;28;20086;-71
2023/03/31 11:09:28;;;;;;;11.13;3.33;;;15.60;97.10;;;;;;5054654;28;20044;-71
2023/03/31 11:12:04;;;;;;;13.02;3.22;;;15.60;97.00;;;;;;5054982;28;20115;-71
2023/03/31 11:14:55;;;;;;;11.60;3.15;;;15.60;97.10;;;;;;5037789;28;20028;-76
2023/03/31 11:17:43;;;;;;;10.75;3.28;;;15.60;97.10;;;;;;5054460;28;20037;-71
2023/03/31 11:20:23;;;;;;;9.38;2.90;;;15.60;97.00;;;;;;5054307;28;20474;-72
2023/03/31 11:23:00;;;;;;;11.10;3.13;;;15.60;97.00;;;;;;5054709;28;20032;-73
2023/03/31 11:25:38;;;;;;;10.73;2.80;;;15.60;96.90;;;;;;5054430;28;20025;-73
2023/03/31 11:28:26;;;;;;;8.02;2.80;;;15.60;97.00;;;;;;5054634;28;20060;-71
2023/03/31 11:31:11;;;;;;;13.10;3.22;;;15.60;96.90;;;;;;5054406;28;20025;-72
2023/03/31 11:34:03;;;;;;;12.02;2.92;;;15.60;96.90;;;;;;5054273;28;20116;-73
2023/03/31 11:37:06;;;;;;;11.57;2.65;;;15.60;97.20;;;;;;5054228;28;20029;-72
2023/03/31 11:39:48;;;;;;;9.95;3.00;;;15.60;96.90;;;;;;5054232;28;20378;-75
2023/03/31 11:42:22;;;;;;;11.10;2.28;;;15.60;96.90;;;;;;5054316;28;20044;-75
2023/03/31 11:44:53;;;;;;;11.70;2.72;;;15.60;96.80;;;;;;5054271;28;20017;-73
2023/03/31 11:47:23;;;;;;;10.05;2.83;;;15.60;96.70;;;;;;5054263;28;20047;-72
2023/03/31 11:49:55;;;;;;;13.65;2.88;;;15.60;96.80;;;;;;5053899;28;20108;-73
2023/03/31 11:52:33;;;;;;;9.45;2.72;;;15.60;96.90;;;;;;5054261;28;20029;-71
2023/03/31 11:55:05;;;;;;;8.70;2.63;;;15.60;96.90;;;;;;5053694;28;20056;-74
2023/03/31 11:57:40;;;;;;;;;;;15.60;97.10;;;;;;5054523;28;20029;-74
2023/03/31 12:00:07;;;;;;;12.93;2.85;;;15.60;97.10;;;;;;5054024;28;19940;-72
2023/03/31 12:02:49;;;;;;;9.82;2.45;;;15.50;97.20;;;;;;5053994;28;20155;-72
2023/03/31 12:05:17;;;;;;;9.50;2.70;;;15.50;97.20;;;;;;5053655;28;20120;-73
2023/03/31 12:08:07;;;;;;;10.40;2.78;;;15.60;97.20;;;;;;5053717;28;20482;-71
2023/03/31 12:11:26;;;;;;;7.32;2.28;;;15.60;97.10;;;;;;5053523;28;20468;-71
2023/03/31 12:13:59;;;;;;;9.48;2.35;;;15.60;97.20;;;;;;5032484;28;20033;-78
2023/03/31 12:16:37;;;;;;;8.48;2.40;;;15.60;97.10;;;;;;5053586;28;20056;-71
2023/03/31 12:19:21;;;;;;;9.85;2.70;;;15.50;97.20;;;;;;5053404;28;20029;-71
2023/03/31 12:21:55;;;;;;;7.57;1.58;;;15.60;97.10;;;;;;5053423;28;20028;-73
2023/03/31 12:24:21;;;;;;;9.80;2.15;;;15.60;97.00;;;;;;5053568;28;20021;-73
2023/03/31 12:27:04;;;;;;;6.93;1.95;;;15.60;97.00;;;;;;5053240;28;20025;-73
2023/03/31 12:29:34;;;;;;;7.78;1.75;;;15.60;97.00;;;;;;5052327;28;20061;-72
2023/03/31 12:32:22;;;;;;;8.65;2.03;;;15.50;97.10;;;;;;5053342;28;20079;-75
2023/03/31 12:34:58;;;;;;;7.10;1.75;;;15.50;97.10;;;;;;5044498;28;20398;-62
2023/03/31 12:38:01;;;;;;;9.13;1.98;;;15.60;97.00;;;;;;5032505;28;20029;-74
2023/03/31 12:40:39;;;;;;;7.00;1.50;;;15.60;96.80;;;;;;5008651;28;20033;-62
2023/03/31 12:43:51;;;;;;;5.85;1.60;;;15.60;96.80;;;;;;5020969;28;20022;-62
2023/03/31 12:46:41;;;;;;;8.27;2.10;;;15.70;96.80;;;;;;5022332;28;20029;-64
2023/03/31 12:49:19;;;;;;;7.40;1.70;;;15.70;96.90;;;;;;5031858;28;20057;-63
2023/03/31 12:52:10;;;;;;;4.45;1.38;;;15.70;96.80;;;;;;5030682;28;20051;-62
2023/03/31 12:54:56;;;;;;;4.65;1.20;;;15.70;96.70;;;;;;5027126;28;20035;-63
2023/03/31 12:57:23;;;;;;;5.45;1.42;;;15.70;96.70;;;;;;5020461;28;20061;-63
2023/03/31 13:00:11;;;;;;;5.05;1.33;;;15.70;96.70;;;;;;5029988;28;20017;-70
2023/03/31 13:02:37;;;;;;;3.70;1.10;;;15.70;96.80;;;;;;5030789;28;20029;-64
2023/03/31 13:05:37;;;;;;;4.70;1.20;;;15.70;96.80;;;;;;5013520;28;20409;-63
2023/03/31 13:08:41;;;;;;;4.47;1.23;;;15.80;96.80;;;;;;5013046;28;20065;-62